Time;durP1;ratioP1;P1;durP2;ratioP2;P2;SDS_P1;SDS_P2;PMS_P1;PMS_P2;Temp;Humidity;BMP_temperature;BMP_pressure;BME280_temperature;BME280_humidity;BME280_pressure;Samples;Min_cycle;Max_cycle;Signal;HPM_P1;HPM_P2
2022/05/19 00:02:20;;;;;;;;;;;24.40;51.40;;;;;;5050246;28;19960;-78
2022/05/19 00:04:45;;;;;;;;;;;24.40;51.50;;;;;;5047797;28;19951;-77
2022/05/19 00:07:11;;;;;;;;;;;24.40;51.60;;;;;;5045655;28;19960;-78
2022/05/19 00:09:37;;;;;;;;;;;24.40;51.60;;;;;;5050954;28;20054;-78
2022/05/19 00:12:07;;;;;;;;;;;24.40;51.70;;;;;;5052014;28;19954;-78
2022/05/19 00:14:33;;;;;;;;;;;24.40;51.90;;;;;;5050921;28;19913;-78
2022/05/19 00:16:58;;;;;;;;;;;24.40;52.00;;;;;;5046184;28;19913;-78
2022/05/19 00:19:25;;;;;;;;;;;24.30;51.90;;;;;;5054408;28;19913;-78
2022/05/19 00:21:50;;;;;;;;;;;24.30;52.00;;;;;;5055196;28;19917;-78
2022/05/19 00:24:15;;;;;;;;;;;24.40;52.20;;;;;;5054347;28;19913;-78
2022/05/19 00:26:41;;;;;;;;;;;24.30;52.20;;;;;;5055681;28;20364;-78
2022/05/19 00:29:07;;;;;;;;;;;24.20;52.30;;;;;;5054851;28;19934;-78
2022/05/19 00:31:32;;;;;;;;;;;24.30;52.30;;;;;;5055819;28;20101;-77
2022/05/19 00:33:58;;;;;;;;;;;24.30;52.40;;;;;;5053731;28;20385;-78
2022/05/19 00:36:24;;;;;;;;;;;24.30;52.40;;;;;;5054544;28;19916;-77
2022/05/19 00:38:49;;;;;;;;;;;24.30;52.50;;;;;;5069964;28;19919;-77
2022/05/19 00:41:15;;;;;;;;;;;24.30;52.70;;;;;;5055234;28;20360;-79
2022/05/19 00:43:42;;;;;;;;;;;24.30;53.20;;;;;;5053889;28;19920;-78
2022/05/19 00:46:13;;;;;;;;;;;24.30;51.10;;;;;;5054869;28;19962;-78
2022/05/19 00:48:39;;;;;;;;;;;24.30;51.70;;;;;;5053694;28;19961;-77
2022/05/19 00:51:06;;;;;;;;;;;24.30;51.90;;;;;;5054852;28;20611;-78
2022/05/19 00:53:44;;;;;;;;;;;24.30;52.10;;;;;;5053715;28;19935;-77
2022/05/19 00:56:29;;;;;;;;;;;24.30;52.20;;;;;;5054059;28;20015;-77
2022/05/19 00:59:15;;;;;;;;;;;24.30;52.20;;;;;;5034234;28;20028;-77
2022/05/19 01:01:42;;;;;;;;;;;24.30;52.40;;;;;;5031584;28;19964;-77
2022/05/19 01:04:10;;;;;;;;;;;24.20;52.30;;;;;;5053426;28;19920;-77
2022/05/19 01:06:37;;;;;;;;;;;24.20;52.20;;;;;;5052494;28;19909;-77
2022/05/19 01:09:06;;;;;;;;;;;24.30;52.30;;;;;;5053022;28;20287;-77
2022/05/19 01:11:31;;;;;;;;;;;24.20;52.40;;;;;;5053176;28;19917;-77
2022/05/19 01:13:57;;;;;;;;;;;24.20;52.40;;;;;;5049481;28;19959;-77
2022/05/19 01:16:23;;;;;;;;;;;24.20;52.40;;;;;;5051208;28;19999;-78
2022/05/19 01:18:50;;;;;;;;;;;24.10;52.30;;;;;;5054811;28;20449;-78
2022/05/19 01:21:18;;;;;;;;;;;24.20;52.30;;;;;;5070350;28;19909;-76
2022/05/19 01:23:52;;;;;;;;;;;24.20;52.30;;;;;;5052316;28;19913;-77
2022/05/19 01:26:18;;;;;;;;;;;24.20;52.40;;;;;;5053315;28;20000;-77
2022/05/19 01:28:44;;;;;;;;;;;24.20;52.30;;;;;;5053780;28;19994;-77
2022/05/19 01:31:29;;;;;;;;;;;24.20;52.30;;;;;;5053867;28;19931;-77
2022/05/19 01:33:55;;;;;;;;;;;24.20;52.40;;;;;;5040472;28;19924;-77
2022/05/19 01:36:20;;;;;;;;;;;24.10;52.20;;;;;;5049763;28;19912;-77
2022/05/19 01:38:47;;;;;;;;;;;24.10;52.20;;;;;;5051579;28;19920;-77
2022/05/19 01:41:21;;;;;;;;;;;24.20;52.40;;;;;;5052821;28;19913;-77
2022/05/19 01:44:19;;;;;;;;;;;24.20;52.50;;;;;;5052689;28;19912;-77
2022/05/19 01:46:47;;;;;;;;;;;24.20;52.60;;;;;;5053670;28;19915;-77
2022/05/19 01:49:17;;;;;;;;;;;24.10;52.40;;;;;;5053196;28;19916;-77
2022/05/19 01:51:52;;;;;;;;;;;24.10;52.30;;;;;;5052304;28;19920;-77
2022/05/19 01:54:17;;;;;;;;;;;24.10;52.30;;;;;;5033517;28;20297;-77
2022/05/19 01:56:49;;;;;;;;;;;24.10;52.30;;;;;;5032248;28;19919;-77
2022/05/19 01:59:18;;;;;;;;;;;24.10;52.30;;;;;;5048075;28;19913;-77
2022/05/19 02:01:46;;;;;;;;;;;24.10;52.30;;;;;;5053431;28;19915;-77
2022/05/19 02:04:22;;;;;;;;;;;24.10;52.40;;;;;;5044189;28;20373;-78
2022/05/19 02:06:52;;;;;;;;;;;24.10;52.30;;;;;;5053572;28;19916;-78
2022/05/19 02:09:44;;;;;;;;;;;24.10;52.30;;;;;;5052901;28;19963;-78
2022/05/19 02:12:09;;;;;;;;;;;24.10;52.30;;;;;;5065709;28;19921;-78
2022/05/19 02:14:36;;;;;;;;;;;24.10;52.40;;;;;;5052978;28;19909;-77
2022/05/19 02:17:04;;;;;;;;;;;24.10;52.30;;;;;;5053239;28;20007;-77
2022/05/19 02:19:33;;;;;;;;;;;24.10;52.30;;;;;;5052561;28;19952;-77
2022/05/19 02:21:59;;;;;;;;;;;24.10;52.40;;;;;;5052705;28;19944;-77
2022/05/19 02:24:26;;;;;;;;;;;24.00;52.50;;;;;;5048837;28;19967;-77
2022/05/19 02:26:51;;;;;;;;;;;24.10;52.50;;;;;;5053009;28;19970;-77
2022/05/19 02:29:22;;;;;;;;;;;24.00;52.50;;;;;;5051780;28;19912;-77
2022/05/19 02:31:48;;;;;;;;;;;24.00;52.60;;;;;;5053044;28;20651;-77
2022/05/19 02:34:13;;;;;;;;;;;24.00;52.50;;;;;;5045098;28;20000;-78
2022/05/19 02:36:40;;;;;;;;;;;24.00;52.50;;;;;;5046611;28;20356;-77
2022/05/19 02:39:06;;;;;;;;;;;24.00;52.50;;;;;;5038086;28;20371;-78
2022/05/19 02:41:31;;;;;;;;;;;23.90;52.40;;;;;;5051633;28;19913;-77
2022/05/19 02:43:56;;;;;;;;;;;23.90;52.50;;;;;;5049396;28;20364;-77
2022/05/19 02:46:22;;;;;;;;;;;23.90;52.50;;;;;;5052307;28;19920;-78
2022/05/19 02:48:48;;;;;;;;;;;23.90;52.50;;;;;;5040377;28;19909;-78
2022/05/19 02:51:13;;;;;;;;;;;23.90;52.50;;;;;;5042492;28;19916;-78
2022/05/19 02:53:38;;;;;;;;;;;23.90;52.50;;;;;;5050398;28;19908;-78
2022/05/19 02:56:04;;;;;;;;;;;23.90;52.60;;;;;;5052869;28;20011;-78
2022/05/19 02:58:30;;;;;;;;;;;23.90;52.60;;;;;;5052553;28;20276;-78
2022/05/19 03:00:55;;;;;;;;;;;23.90;52.60;;;;;;5052716;28;19912;-77
2022/05/19 03:03:21;;;;;;;;;;;23.80;52.50;;;;;;5049616;28;19916;-78
2022/05/19 03:05:46;;;;;;;;;;;23.90;52.60;;;;;;5051053;28;19936;-78
2022/05/19 03:08:12;;;;;;;;;;;23.90;52.70;;;;;;5052775;28;19909;-78
2022/05/19 03:10:39;;;;;;;;;;;23.80;52.50;;;;;;5050843;28;19916;-77
2022/05/19 03:13:05;;;;;;;;;;;23.80;52.60;;;;;;5051213;28;19909;-77
2022/05/19 03:15:31;;;;;;;;;;;23.80;52.60;;;;;;5051144;28;20380;-76
2022/05/19 03:17:57;;;;;;;;;;;23.80;52.50;;;;;;5050687;28;19920;-77
2022/05/19 03:20:22;;;;;;;;;;;23.80;52.70;;;;;;5051806;28;20545;-77
2022/05/19 03:22:48;;;;;;;;;;;23.80;52.70;;;;;;5051242;28;19909;-77
2022/05/19 03:25:14;;;;;;;;;;;23.80;52.80;;;;;;5050472;28;19996;-77
2022/05/19 03:27:39;;;;;;;;;;;23.70;52.60;;;;;;5050959;28;19948;-77
2022/05/19 03:30:07;;;;;;;;;;;23.70;52.80;;;;;;5051359;28;19916;-77
2022/05/19 03:32:32;;;;;;;;;;;23.80;52.90;;;;;;5050896;28;19913;-77
2022/05/19 03:34:58;;;;;;;;;;;23.80;52.90;;;;;;5049882;28;20328;-77
2022/05/19 03:37:23;;;;;;;;;;;23.80;52.80;;;;;;5050447;28;20277;-77
2022/05/19 03:39:49;;;;;;;;;;;23.70;52.80;;;;;;5050949;28;19909;-77
2022/05/19 03:42:14;;;;;;;;;;;23.70;52.80;;;;;;5047002;28;19913;-78
2022/05/19 03:44:40;;;;;;;;;;;23.80;52.90;;;;;;5050696;28;20288;-77
2022/05/19 03:47:06;;;;;;;;;;;23.70;52.90;;;;;;5048945;28;19912;-77
2022/05/19 03:49:32;;;;;;;;;;;23.70;52.90;;;;;;5047434;28;19956;-77
2022/05/19 03:51:57;;;;;;;;;;;23.70;52.80;;;;;;5046582;28;19909;-77
2022/05/19 03:54:23;;;;;;;;;;;23.70;52.80;;;;;;5047066;28;19919;-77
2022/05/19 03:56:48;;;;;;;;;;;23.70;52.80;;;;;;5040469;28;19919;-77
2022/05/19 03:59:14;;;;;;;;;;;23.70;52.90;;;;;;5050870;28;20335;-78
2022/05/19 04:01:40;;;;;;;;;;;23.70;53.00;;;;;;5046007;28;19917;-78
2022/05/19 04:04:05;;;;;;;;;;;23.70;52.90;;;;;;5041165;28;20355;-78
2022/05/19 04:06:31;;;;;;;;;;;23.70;52.90;;;;;;5043351;28;19913;-78
2022/05/19 04:08:56;;;;;;;;;;;23.70;52.90;;;;;;5050221;28;20376;-78
2022/05/19 04:11:23;;;;;;;;;;;23.70;52.90;;;;;;5049719;28;19909;-78
2022/05/19 04:13:48;;;;;;;;;;;23.70;52.80;;;;;;5051151;28;19913;-77
2022/05/19 04:16:14;;;;;;;;;;;23.80;52.80;;;;;;5050423;28;19920;-78
2022/05/19 04:18:39;;;;;;;;;;;23.70;52.80;;;;;;5048979;28;19917;-78
2022/05/19 04:21:05;;;;;;;;;;;23.70;52.80;;;;;;5049240;28;20280;-78
2022/05/19 04:23:31;;;;;;;;;;;23.70;52.80;;;;;;5052303;28;19936;-78
2022/05/19 04:25:56;;;;;;;;;;;23.70;52.80;;;;;;5049078;28;20296;-78
2022/05/19 04:28:22;;;;;;;;;;;23.80;52.70;;;;;;5049623;28;19913;-77
2022/05/19 04:30:47;;;;;;;;;;;23.80;52.60;;;;;;5042780;28;19915;-78
2022/05/19 04:33:16;;;;;;;;;;;23.70;52.50;;;;;;5049531;28;19932;-77
2022/05/19 04:35:42;;;;;;;;;;;23.80;52.50;;;;;;5050012;28;19948;-77
2022/05/19 04:38:09;;;;;;;;;;;23.80;52.50;;;;;;5050122;28;20682;-77
2022/05/19 04:40:35;;;;;;;;;;;23.80;52.40;;;;;;5044022;28;19917;-77
2022/05/19 04:43:00;;;;;;;;;;;23.90;52.40;;;;;;5050590;28;19920;-77
2022/05/19 04:45:26;;;;;;;;;;;23.90;52.30;;;;;;5048807;28;19917;-77
2022/05/19 04:47:51;;;;;;;;;;;23.90;52.30;;;;;;5042332;28;19935;-77
2022/05/19 04:50:17;;;;;;;;;;;23.90;52.40;;;;;;5050637;28;19916;-77
2022/05/19 04:52:42;;;;;;;;;;;24.00;52.30;;;;;;5051568;28;20353;-79
2022/05/19 04:55:08;;;;;;;;;;;;;;;;;;5049273;28;19916;-78
2022/05/19 04:57:34;;;;;;;;;;;;;;;;;;5047921;28;20342;-78
2022/05/19 05:00:00;;;;;;;;;;;;;;;;;;5037840;28;19921;-77
2022/05/19 05:02:26;;;;;;;;;;;;;;;;;;5040829;28;19921;-77
2022/05/19 05:04:52;;;;;;;;;;;;;;;;;;5050528;28;19958;-77
2022/05/19 05:07:18;;;;;;;;;;;;;;;;;;5053718;28;20266;-78
2022/05/19 05:09:43;;;;;;;;;;;;;;;;;;5044160;28;19916;-78
2022/05/19 05:12:09;;;;;;;;;;;;;;;;;;5054566;28;19913;-78
2022/05/19 05:14:35;;;;;;;;;;;;;;;;;;5054886;28;19955;-78
2022/05/19 05:17:01;;;;;;;;;;;;;;;;;;5055517;28;19931;-78
2022/05/19 05:19:27;;;;;;;;;;;;;;;;;;5070866;28;20455;-78
2022/05/19 05:21:53;;;;;;;;;;;;;;;;;;5077952;28;19959;-79
2022/05/19 05:24:19;;;;;;;;;;;;;;;;;;5056313;28;19913;-78
2022/05/19 05:26:45;;;;;;;;;;;;;;;;;;5052493;28;20295;-78
2022/05/19 05:29:11;;;;;;;;;;;;;;;;;;5054904;28;19912;-80
2022/05/19 05:31:36;;;;;;;;;;;;;;;;;;5056868;28;19920;-79
2022/05/19 05:34:02;;;;;;;;;;;;;;;;;;5055526;28;19936;-78
2022/05/19 05:36:28;;;;;;;;;;;;;;;;;;5053365;28;19976;-78
2022/05/19 05:38:54;;;;;;;;;;;;;;;;;;5054095;28;19920;-78
2022/05/19 05:41:20;;;;;;;;;;;;;;;;;;5054056;28;20553;-78
2022/05/19 05:43:46;;;;;;;;;;;;;;;;;;5053160;28;19923;-79
2022/05/19 05:46:14;;;;;;;;;;;25.10;45.50;;;;;;5054005;28;20009;-78
2022/05/19 05:48:39;;;;;;;;;;;25.20;45.70;;;;;;5053750;28;19944;-78
2022/05/19 05:51:06;;;;;;;;;;;25.40;45.30;;;;;;5053627;28;19909;-78
2022/05/19 05:53:31;;;;;;;;;;;25.70;44.40;;;;;;5052877;28;19909;-78
2022/05/19 05:55:57;;;;;;;;;;;26.20;44.20;;;;;;5055899;28;19919;-78
2022/05/19 05:58:22;;;;;;;;;;;26.60;43.70;;;;;;5051795;28;19915;-78
2022/05/19 06:00:48;;;;;;;;;;;26.90;43.30;;;;;;5053984;28;19935;-78
2022/05/19 06:03:13;;;;;;;;;;;27.30;42.70;;;;;;5055647;28;19915;-78
2022/05/19 06:05:38;;;;;;;;;;;27.40;42.00;;;;;;5055202;28;19909;-78
2022/05/19 06:08:04;;;;;;;;;;;27.40;42.70;;;;;;5054723;28;19913;-78
2022/05/19 06:10:30;;;;;;;;;;;27.60;41.90;;;;;;5054542;28;19916;-78
2022/05/19 06:12:56;;;;;;;;;;;27.70;41.40;;;;;;5055698;28;19990;-78
2022/05/19 06:15:22;;;;;;;;;;;28.00;41.20;;;;;;5053016;28;19912;-78
2022/05/19 06:17:48;;;;;;;;;;;;;;;;;;5052915;28;19909;-78
2022/05/19 06:20:14;;;;;;;;;;;;;;;;;;5052491;28;19913;-78
2022/05/19 06:22:39;;;;;;;;;;;;;;;;;;5051990;28;19963;-78
2022/05/19 06:25:05;;;;;;;;;;;;;;;;;;5051858;28;19909;-78
2022/05/19 06:27:31;;;;;;;;;;;;;;;;;;5052651;28;19940;-78
2022/05/19 06:29:57;;;;;;;;;;;;;;;;;;5052940;28;19908;-78
2022/05/19 06:32:23;;;;;;;;;;;;;;;;;;5052445;28;19908;-78
2022/05/19 06:34:49;;;;;;;;;;;;;;;;;;5052464;28;19999;-78
2022/05/19 06:37:15;;;;;;;;;;;28.90;38.90;;;;;;5052863;28;19951;-78
2022/05/19 06:39:40;;;;;;;;;;;28.90;39.40;;;;;;5053424;28;19966;-78
2022/05/19 06:42:11;;;;;;;;;;;29.00;39.30;;;;;;5052958;28;19909;-78
2022/05/19 06:44:38;;;;;;;;;;;29.10;39.20;;;;;;5053503;28;19917;-79
2022/05/19 06:47:10;;;;;;;;;;;29.20;38.90;;;;;;5055647;28;19909;-79
2022/05/19 06:49:35;;;;;;;;;;;29.30;38.80;;;;;;5054423;28;19908;-79
2022/05/19 06:52:01;;;;;;;;;;;29.30;42.60;;;;;;5055210;28;20422;-79
2022/05/19 06:54:27;;;;;;;;;;;;;;;;;;5055329;28;20008;-79
2022/05/19 06:56:53;;;;;;;;;;;;;;;;;;5054532;28;19920;-79
2022/05/19 06:59:19;;;;;;;;;;;;;;;;;;5055184;28;20284;-78
2022/05/19 07:01:45;;;;;;;;;;;;;;;;;;5054380;28;20288;-79
2022/05/19 07:04:11;;;;;;;;;;;;;;;;;;5054497;28;19912;-79
2022/05/19 07:06:37;;;;;;;;;;;;;;;;;;5054363;28;20390;-79
2022/05/19 07:09:03;;;;;;;;;;;;;;;;;;5053773;28;19909;-79
2022/05/19 07:11:29;;;;;;;;;;;;;;;;;;5056542;28;19912;-79
2022/05/19 07:13:55;;;;;;;;;;;;;;;;;;5054603;28;19912;-78
2022/05/19 07:16:21;;;;;;;;;;;;;;;;;;5055705;28;19927;-79
2022/05/19 07:18:47;;;;;;;;;;;;;;;;;;5055438;28;20372;-79
2022/05/19 07:21:12;;;;;;;;;;;;;;;;;;5053810;28;19915;-79
2022/05/19 07:23:39;;;;;;;;;;;;;;;;;;5052146;28;20000;-76
2022/05/19 07:26:05;;;;;;;;;;;;;;;;;;5051522;28;20400;-76
2022/05/19 07:28:31;;;;;;;;;;;;;;;;;;5050235;28;19955;-76
2022/05/19 07:30:57;;;;;;;;;;;;;;;;;;5051451;28;20030;-76
2022/05/19 07:33:28;;;;;;;;;;;;;;;;;;5051367;28;19932;-76
2022/05/19 07:35:54;;;;;;;;;;;;;;;;;;5051422;28;19967;-76
2022/05/19 07:38:20;;;;;;;;;;;;;;;;;;5051563;28;19913;-76
2022/05/19 07:40:46;;;;;;;;;;;;;;;;;;5051167;28;19992;-76
2022/05/19 07:45:57;;;;;;;;;;;;;;;;;;5051336;28;20367;-76
2022/05/19 07:48:23;;;;;;;;;;;;;;;;;;5050046;28;20280;-76
2022/05/19 07:50:49;;;;;;;;;;;;;;;;;;5051173;28;19917;-76
2022/05/19 07:53:14;;;;;;;;;;;;;;;;;;5051216;28;20504;-76
2022/05/19 07:55:40;;;;;;;;;;;;;;;;;;5051041;28;19969;-76
2022/05/19 07:58:07;;;;;;;;;;;;;;;;;;5051167;28;19913;-76
2022/05/19 08:00:33;;;;;;;;;;;;;;;;;;5050951;28;19913;-76
2022/05/19 08:02:59;;;;;;;;;;;;;;;;;;5051081;28;19916;-76
2022/05/19 08:05:25;;;;;;;;;;;;;;;;;;5051097;28;19955;-76
2022/05/19 08:07:51;;;;;;;;;;;;;;;;;;5051109;28;20451;-76
2022/05/19 08:10:26;;;;;;;;;;;;;;;;;;5050851;28;20004;-76
2022/05/19 08:15:36;;;;;;;;;;;;;;;;;;5050885;28;19919;-76
2022/05/19 08:18:03;;;;;;;;;;;;;;;;;;5050910;28;19909;-76
2022/05/19 08:20:29;;;;;;;;;;;;;;;;;;5050610;28;19909;-76
2022/05/19 08:22:55;;;;;;;;;;;;;;;;;;5051190;28;19909;-76
2022/05/19 08:25:26;;;;;;;;;;;;;;;;;;5050791;28;19913;-76
2022/05/19 08:27:52;;;;;;;;;;;;;;;;;;5050884;28;19908;-76
2022/05/19 08:30:18;;;;;;;;;;;;;;;;;;5050811;28;19963;-76
2022/05/19 08:32:44;;;;;;;;;;;;;;;;;;5049566;28;19968;-76
2022/05/19 08:35:10;;;;;;;;;;;;;;;;;;5052304;28;19964;-76
2022/05/19 08:37:36;;;;;;;;;;;;;;;;;;5054674;28;19909;-76
2022/05/19 08:40:02;;;;;;;;;;;;;;;;;;5054312;28;19955;-76
2022/05/19 08:42:27;;;;;;;;;;;;;;;;;;5054677;28;19916;-76
2022/05/19 08:44:53;;;;;;;;;;;;;;;;;;5053168;28;20292;-76
2022/05/19 08:47:20;;;;;;;;;;;;;;;;;;5053081;28;20383;-76
2022/05/19 08:49:46;;;;;;;;;;;;;;;;;;5054235;28;19909;-76
2022/05/19 08:52:12;;;;;;;;;;;;;;;;;;5054636;28;20271;-76
2022/05/19 08:54:38;;;;;;;;;;;;;;;;;;5054159;28;19909;-76
2022/05/19 08:57:04;;;;;;;;;;;;;;;;;;5054176;28;19952;-76
2022/05/19 08:59:30;;;;;;;;;;;;;;;;;;5053875;28;19916;-76
2022/05/19 09:01:56;;;;;;;;;;;;;;;;;;5054231;28;19916;-76
2022/05/19 09:04:22;;;;;;;;;;;;;;;;;;5054175;28;19960;-76
2022/05/19 09:09:46;;;;;;;;;;;;;;;;;;5041427;28;19916;-76
2022/05/19 09:12:12;;;;;;;;;;;;;;;;;;5054120;28;19909;-76
2022/05/19 09:14:39;;;;;;;;;;;;;;;;;;5052558;28;20288;-76
2022/05/19 09:17:05;;;;;;;;;;;;;;;;;;5053834;28;19952;-75
2022/05/19 09:19:31;;;;;;;;;;;;;;;;;;5053553;28;20365;-76
2022/05/19 09:21:58;;;;;;;;;;;;;;;;;;5053852;28;19909;-76
2022/05/19 09:24:24;;;;;;;;;;;;;;;;;;5053647;28;20007;-76
2022/05/19 09:26:52;;;;;;;;;;;;;;;;;;5053902;28;19948;-76
2022/05/19 09:29:18;;;;;;;;;;;;;;;;;;5053445;28;19991;-76
2022/05/19 09:31:44;;;;;;;;;;;;;;;;;;5052297;28;20012;-76
2022/05/19 09:34:10;;;;;;;;;;;;;;;;;;5053569;28;19956;-76
2022/05/19 09:36:41;;;;;;;;;;;;;;;;;;5053524;28;20347;-76
2022/05/19 09:39:07;;;;;;;;;;;;;;;;;;5052988;28;19963;-76
2022/05/19 09:41:33;;;;;;;;;;;;;;;;;;5053635;28;19941;-76
2022/05/19 09:43:59;;;;;;;;;;;;;;;;;;5053333;28;20232;-76
2022/05/19 09:46:26;;;;;;;;;;;;;;;;;;5052797;28;19909;-76
2022/05/19 09:48:52;;;;;;;;;;;;;;;;;;5053521;28;19962;-78
2022/05/19 09:51:19;;;;;;;;;;;;;;;;;;5056857;28;20402;-78
2022/05/19 09:53:45;;;;;;;;;;;;;;;;;;5056304;28;20293;-78
2022/05/19 09:56:11;;;;;;;;;;;;;;;;;;5056597;28;20352;-78
2022/05/19 09:58:37;;;;;;;;;;;;;;;;;;5055650;28;19909;-78
2022/05/19 10:01:03;;;;;;;;;;;;;;;;;;5056411;28;20004;-78
2022/05/19 10:03:29;;;;;;;;;;;;;;;;;;5056157;28;19909;-78
2022/05/19 10:05:55;;;;;;;;;;;;;;;;;;5056901;28;20284;-78
2022/05/19 10:08:21;;;;;;;;;;;;;;;;;;5054591;28;19913;-78
2022/05/19 10:10:47;;;;;;;;;;;;;;;;;;5054873;28;20403;-78
2022/05/19 10:13:14;;;;;;;;;;;;;;;;;;5053843;28;19940;-78
2022/05/19 10:15:40;;;;;;;;;;;;;;;;;;5053837;28;19913;-78
2022/05/19 10:18:06;;;;;;;;;;;;;;;;;;5053745;28;19909;-78
2022/05/19 10:20:32;;;;;;;;;;;;;;;;;;5051594;28;19909;-78
2022/05/19 10:22:58;;;;;;;;;;;;;;;;;;5053138;28;19909;-77
2022/05/19 10:25:24;;;;;;;;;;;;;;;;;;5051629;28;19932;-78
2022/05/19 10:33:19;;;;;;;;;;;;;;;;;;5053050;28;20331;-78
2022/05/19 10:35:45;;;;;;;;;;;;;;;;;;5052709;28;19960;-78
2022/05/19 10:38:11;;;;;;;;;;;;;;;;;;5052814;28;19963;-78
2022/05/19 10:40:38;;;;;;;;;;;;;;;;;;5052536;28;19909;-78
2022/05/19 10:43:04;;;;;;;;;;;;;;;;;;5052226;28;19909;-78
2022/05/19 10:45:30;;;;;;;;;;;;;;;;;;5052066;28;19916;-78
2022/05/19 10:47:56;;;;;;;;;;;;;;;;;;5052083;28;20012;-78
2022/05/19 10:50:22;;;;;;;;;;;;;;;;;;5051827;28;19919;-78
2022/05/19 10:52:53;;;;;;;;;;;;;;;;;;5052439;28;19908;-78
2022/05/19 10:55:19;;;;;;;;;;;;;;;;;;5051919;28;19913;-78
2022/05/19 10:57:45;;;;;;;;;;;;;;;;;;5051809;28;19915;-78
2022/05/19 11:00:11;;;;;;;;;;;;;;;;;;5051525;28;19913;-78
2022/05/19 11:02:37;;;;;;;;;;;;;;;;;;5052355;28;20003;-78
2022/05/19 11:05:03;;;;;;;;;;;;;;;;;;5052374;28;19916;-78
2022/05/19 11:07:29;;;;;;;;;;;;;;;;;;5052504;28;19913;-78
2022/05/19 11:09:57;;;;;;;;;;;;;;;;;;5052043;28;19908;-78
2022/05/19 11:12:24;;;;;;;;;;;;;;;;;;5052416;28;20307;-78
2022/05/19 11:14:50;;;;;;;;;;;;;;;;;;5051787;28;19964;-77
2022/05/19 11:17:16;;;;;;;;;;;;;;;;;;5052477;28;20007;-78
2022/05/19 11:19:42;;;;;;;;;;;;;;;;;;5051966;28;20299;-78
2022/05/19 11:22:08;;;;;;;;;;;;;;;;;;5052454;28;19920;-78
2022/05/19 11:24:34;;;;;;;;;;;;;;;;;;5052143;28;19967;-78
2022/05/19 11:27:00;;;;;;;;;;;;;;;;;;5049900;28;20407;-79
2022/05/19 11:29:26;;;;;;;;;;;;;;;;;;5051799;28;19913;-78
2022/05/19 11:31:52;;;;;;;;;;;;;;;;;;5050645;28;19909;-78
2022/05/19 11:34:18;;;;;;;;;;;;;;;;;;5048025;28;19958;-78
2022/05/19 11:36:44;;;;;;;;;;;;;;;;;;5049944;28;19948;-78
2022/05/19 11:39:10;;;;;;;;;;;;;;;;;;5051893;28;19920;-78
2022/05/19 11:41:36;;;;;;;;;;;;;;;;;;5051360;28;19913;-77
2022/05/19 11:44:02;;;;;;;;;;;;;;;;;;5047721;28;19927;-77
2022/05/19 11:46:28;;;;;;;;;;;;;;;;;;5047724;28;19913;-78
2022/05/19 11:57:08;;;;;;;;;;;;;;;;;;5033870;28;19920;-79
2022/05/19 11:59:34;;;;;;;;;;;;;;;;;;5032727;28;19909;-78
2022/05/19 12:02:00;;;;;;;;;;;;;;;;;;5033797;28;19940;-79
2022/05/19 12:04:28;;;;;;;;;;;;;;;;;;5034488;28;19931;-79
2022/05/19 12:06:54;;;;;;;;;;;;;;;;;;5038636;28;20354;-79
2022/05/19 12:09:20;;;;;;;;;;;;;;;;;;5054188;28;19954;-79
2022/05/19 12:11:47;;;;;;;;;;;;;;;;;;5056957;28;19909;-79
2022/05/19 12:14:13;;;;;;;;;;;;;;;;;;5058735;28;20387;-79
2022/05/19 12:16:39;;;;;;;;;;;;;;;;;;5056141;28;19952;-80
2022/05/19 12:19:05;;;;;;;;;;;;;;;;;;5057726;28;19913;-81
2022/05/19 12:21:31;;;;;;;;;;;;;;;;;;5058631;28;20003;-80
2022/05/19 12:23:57;;;;;;;;;;;;;;;;;;5057433;28;19913;-80
2022/05/19 12:26:23;;;;;;;;;;;;;;;;;;5056797;28;20269;-80
2022/05/19 12:28:49;;;;;;;;;;;;;;;;;;5057691;28;20280;-80
2022/05/19 12:34:01;;;;;;;;;;;;;;;;;;5057472;28;19916;-79
2022/05/19 12:36:26;;;;;;;;;;;;;;;;;;5058776;28;20020;-79
2022/05/19 12:38:52;;;;;;;;;;;;;;;;;;5056292;28;20381;-78
2022/05/19 12:41:18;;;;;;;;;;;;;;;;;;5058548;28;19913;-79
2022/05/19 12:43:44;;;;;;;;;;;;;;;;;;5057251;28;19921;-78
2022/05/19 12:46:10;;;;;;;;;;;;;;;;;;5053584;28;20280;-78
2022/05/19 12:48:36;;;;;;;;;;;;;;;;;;5054114;28;19909;-78
2022/05/19 12:51:02;;;;;;;;;;;;;;;;;;5055737;28;19935;-78
2022/05/19 12:53:28;;;;;;;;;;;;;;;;;;5058866;28;19909;-78
2022/05/19 12:55:54;;;;;;;;;;;;;;;;;;5056930;28;20471;-79
2022/05/19 12:58:20;;;;;;;;;;;;;;;;;;5059400;28;20376;-79
2022/05/19 13:00:46;;;;;;;;;;;;;;;;;;5056147;28;19909;-78
2022/05/19 13:03:12;;;;;;;;;;;;;;;;;;5054141;28;19935;-78
2022/05/19 13:05:39;;;;;;;;;;;;;;;;;;5056916;28;19909;-79
2022/05/19 13:08:05;;;;;;;;;;;;;;;;;;5058300;28;19909;-79
2022/05/19 13:10:30;;;;;;;;;;;;;;;;;;5057111;28;19980;-79
2022/05/19 13:12:56;;;;;;;;;;;;;;;;;;5060995;28;19913;-79
2022/05/19 13:15:22;;;;;;;;;;;;;;;;;;5059213;28;19923;-78
2022/05/19 13:17:48;;;;;;;;;;;;;;;;;;5059651;28;19912;-78
2022/05/19 13:20:14;;;;;;;;;;;;;;;;;;5057331;28;20431;-78
2022/05/19 13:22:40;;;;;;;;;;;;;;;;;;5057299;28;19913;-78
2022/05/19 13:25:06;;;;;;;;;;;;;;;;;;5057268;28;19909;-78
2022/05/19 13:30:20;;;;;;;;;;;;;;;;;;5060748;28;19932;-79
2022/05/19 13:32:46;;;;;;;;;;;;;;;;;;5056653;28;20026;-79
2022/05/19 13:35:12;;;;;;;;;;;;;;;;;;5057068;28;19964;-79
2022/05/19 13:37:38;;;;;;;;;;;;;;;;;;5059029;28;19909;-79
2022/05/19 13:40:04;;;;;;;;;;;;;;;;;;5061689;28;19919;-79
2022/05/19 13:42:29;;;;;;;;;;;;;;;;;;5062946;28;20017;-79
2022/05/19 13:44:55;;;;;;;;;;;;;;;;;;5062668;28;20269;-79
2022/05/19 13:47:22;;;;;;;;;;;;;;;;;;5059016;28;19936;-79
2022/05/19 13:49:48;;;;;;;;;;;;;;;;;;5046970;28;19910;-79
2022/05/19 13:52:13;;;;;;;;;;;;;;;;;;5035410;28;19963;-80
2022/05/19 13:54:40;;;;;;;;;;;;;;;;;;5054382;28;20317;-83
2022/05/19 13:57:06;;;;;;;;;;;;;;;;;;5058512;28;19913;-81
2022/05/19 13:59:32;;;;;;;;;;;;;;;;;;5057282;28;19916;-79
2022/05/19 14:02:00;;;;;;;;;;;;;;;;;;5059567;28;19908;-81
2022/05/19 14:04:26;;;;;;;;;;;;;;;;;;5059427;28;19935;-79
2022/05/19 14:06:52;;;;;;;;;;;;;;;;;;5058558;28;20365;-79
2022/05/19 14:09:18;;;;;;;;;;;;;;;;;;5058343;28;19916;-79
2022/05/19 14:11:45;;;;;;;;;;;;;;;;;;5058383;28;19954;-79
2022/05/19 14:14:11;;;;;;;;;;;;;;;;;;5058045;28;20277;-80
2022/05/19 14:16:36;;;;;;;;;;;;;;;;;;5057397;28;19999;-81
2022/05/19 14:19:02;;;;;;;;;;;;;;;;;;5058221;28;20381;-82
2022/05/19 14:21:28;;;;;;;;;;;;;;;;;;5055354;28;19909;-82
2022/05/19 14:23:54;;;;;;;;;;;;;;;;;;5054998;28;19912;-81
2022/05/19 14:26:20;;;;;;;;;;;;;;;;;;5053402;28;19909;-81
2022/05/19 14:28:47;;;;;;;;;;;;;;;;;;5054378;28;19987;-81
2022/05/19 14:31:12;;;;;;;;;;;;;;;;;;5052169;28;19982;-81
2022/05/19 14:33:38;;;;;;;;;;;;;;;;;;5052276;28;20336;-79
2022/05/19 14:36:06;;;;;;;;;;;;;;;;;;5052735;28;21360;-80
2022/05/19 14:38:32;;;;;;;;;;;;;;;;;;5051262;28;19947;-81
2022/05/19 14:43:43;;;;;;;;;;;;;;;;;;5055812;28;19991;-80
2022/05/19 14:46:09;;;;;;;;;;;;;;;;;;5054252;28;20314;-81
2022/05/19 14:48:36;;;;;;;;;;;;;;;;;;5055148;28;19999;-80
2022/05/19 14:51:02;;;;;;;;;;;;;;;;;;5054414;28;19913;-80
2022/05/19 14:53:28;;;;;;;;;;;;;;;;;;5035415;28;20001;-80
2022/05/19 14:55:54;;;;;;;;;;;;;;;;;;5035987;28;20015;-81
2022/05/19 14:58:19;;;;;;;;;;;;;;;;;;5036127;28;19916;-80
2022/05/19 15:00:45;;;;;;;;;;;;;;;;;;5046408;28;19916;-81
2022/05/19 15:03:11;;;;;;;;;;;;;;;;;;5053848;28;19913;-80
2022/05/19 15:05:37;;;;;;;;;;;;;;;;;;5053163;28;19916;-80
2022/05/19 15:08:03;;;;;;;;;;;;;;;;;;5054431;28;19967;-80
2022/05/19 15:10:29;;;;;;;;;;;;;;;;;;5054548;28;19923;-80
2022/05/19 15:12:55;;;;;;;;;;;;;;;;;;5054182;28;20357;-80
2022/05/19 15:15:21;;;;;;;;;;;;;;;;;;5034362;28;19917;-80
2022/05/19 15:17:47;;;;;;;;;;;;;;;;;;5034942;28;20200;-80
2022/05/19 15:20:13;;;;;;;;;;;;;;;;;;5043993;28;19916;-80
2022/05/19 15:22:38;;;;;;;;;;;;;;;;;;5034856;28;19967;-80
2022/05/19 15:25:04;;;;;;;;;;;;;;;;;;5039156;28;19956;-80
2022/05/19 15:27:30;;;;;;;;;;;;;;;;;;5053625;28;19913;-80
2022/05/19 15:29:56;;;;;;;;;;;;;;;;;;5052616;28;19913;-79
2022/05/19 15:32:22;;;;;;;;;;;;;;;;;;5048122;28;20362;-80
2022/05/19 15:34:48;;;;;;;;;;;;;;;;;;5050610;28;20311;-80
2022/05/19 15:37:16;;;;;;;;;;;;;;;;;;5052764;28;19927;-80
2022/05/19 15:39:42;;;;;;;;;;;;;;;;;;5053543;28;19916;-80
2022/05/19 15:42:08;;;;;;;;;;;;;;;;;;5052386;28;19963;-80
2022/05/19 15:44:34;;;;;;;;;;;;;;;;;;5053979;28;19917;-80
2022/05/19 15:47:00;;;;;;;;;;;;;;;;;;5054429;28;20368;-80
2022/05/19 15:49:27;;;;;;;;;;;;;;;;;;5054328;28;20369;-80
2022/05/19 15:51:53;;;;;;;;;;;;;;;;;;5054075;28;19919;-79
2022/05/19 15:54:18;;;;;;;;;;;;;;;;;;5054000;28;19940;-80
2022/05/19 15:56:48;;;;;;;;;;;;;;;;;;5054208;28;19916;-79
2022/05/19 15:59:14;;;;;;;;;;;;;;;;;;5054212;28;19983;-80
2022/05/19 16:01:39;;;;;;;;;;;;;;;;;;5055022;28;19909;-80
2022/05/19 16:04:05;;;;;;;;;;;;;;;;;;5055668;28;20322;-80
2022/05/19 16:06:31;;;;;;;;;;;;;;;;;;5055304;28;19909;-80
2022/05/19 16:08:57;;;;;;;;;;;;;;;;;;5054607;28;19939;-80
2022/05/19 16:11:23;;;;;;;;;;;;;;;;;;5055465;28;19912;-80
2022/05/19 16:13:49;;;;;;;;;;;;;;;;;;5054107;28;19951;-79